sensor_id;sensor_type;location;lat;lon;timestamp;P1;durP1;ratioP1;P2;durP2;ratioP2
18505;SDS011;9382;53.242;10.438;2024-01-16T00:00:38;10.30;;;5.37;;
18505;SDS011;9382;53.242;10.438;2024-01-16T00:03:07;6.67;;;5.20;;
18505;SDS011;9382;53.242;10.438;2024-01-16T00:05:33;9.20;;;5.13;;
18505;SDS011;9382;53.242;10.438;2024-01-16T00:08:00;9.80;;;5.33;;
18505;SDS011;9382;53.242;10.438;2024-01-16T00:10:27;11.17;;;5.60;;
18505;SDS011;9382;53.242;10.438;2024-01-16T00:12:53;9.73;;;5.53;;
18505;SDS011;9382;53.242;10.438;2024-01-16T00:15:20;7.47;;;5.53;;
18505;SDS011;9382;53.242;10.438;2024-01-16T00:17:47;7.60;;;4.93;;
18505;SDS011;9382;53.242;10.438;2024-01-16T00:20:16;10.23;;;5.53;;
18505;SDS011;9382;53.242;10.438;2024-01-16T00:22:43;9.57;;;5.30;;
18505;SDS011;9382;53.242;10.438;2024-01-16T00:25:09;6.70;;;5.03;;
18505;SDS011;9382;53.242;10.438;2024-01-16T00:27:36;8.97;;;5.70;;
18505;SDS011;9382;53.242;10.438;2024-01-16T00:30:03;6.47;;;5.40;;
18505;SDS011;9382;53.242;10.438;2024-01-16T00:32:31;6.53;;;5.03;;
18505;SDS011;9382;53.242;10.438;2024-01-16T00:34:58;10.87;;;5.40;;
18505;SDS011;9382;53.242;10.438;2024-01-16T00:37:26;8.83;;;5.57;;
18505;SDS011;9382;53.242;10.438;2024-01-16T00:39:53;8.70;;;5.30;;
18505;SDS011;9382;53.242;10.438;2024-01-16T00:42:19;6.93;;;4.77;;
18505;SDS011;9382;53.242;10.438;2024-01-16T00:44:46;7.93;;;4.93;;
18505;SDS011;9382;53.242;10.438;2024-01-16T00:47:13;8.40;;;5.57;;
18505;SDS011;9382;53.242;10.438;2024-01-16T00:49:39;10.53;;;5.37;;
18505;SDS011;9382;53.242;10.438;2024-01-16T00:52:06;6.43;;;4.93;;
18505;SDS011;9382;53.242;10.438;2024-01-16T00:54:34;8.17;;;5.13;;
18505;SDS011;9382;53.242;10.438;2024-01-16T00:57:04;6.20;;;5.07;;
18505;SDS011;9382;53.242;10.438;2024-01-16T00:59:31;9.53;;;5.33;;
18505;SDS011;9382;53.242;10.438;2024-01-16T01:01:57;7.80;;;5.47;;
18505;SDS011;9382;53.242;10.438;2024-01-16T01:04:24;8.97;;;5.60;;
18505;SDS011;9382;53.242;10.438;2024-01-16T01:06:51;8.27;;;5.60;;
18505;SDS011;9382;53.242;10.438;2024-01-16T01:09:18;7.53;;;5.00;;
18505;SDS011;9382;53.242;10.438;2024-01-16T01:11:46;9.07;;;5.17;;
18505;SDS011;9382;53.242;10.438;2024-01-16T01:14:13;7.33;;;5.13;;
18505;SDS011;9382;53.242;10.438;2024-01-16T01:16:40;11.47;;;5.40;;
18505;SDS011;9382;53.242;10.438;2024-01-16T01:19:06;8.67;;;6.00;;
18505;SDS011;9382;53.242;10.438;2024-01-16T01:21:34;12.23;;;6.50;;
18505;SDS011;9382;53.242;10.438;2024-01-16T01:24:02;10.90;;;5.80;;
18505;SDS011;9382;53.242;10.438;2024-01-16T01:26:29;12.07;;;6.43;;
18505;SDS011;9382;53.242;10.438;2024-01-16T01:28:57;9.43;;;6.40;;
18505;SDS011;9382;53.242;10.438;2024-01-16T01:31:24;11.87;;;6.43;;
18505;SDS011;9382;53.242;10.438;2024-01-16T01:33:50;12.17;;;6.53;;
18505;SDS011;9382;53.242;10.438;2024-01-16T01:36:17;10.67;;;5.73;;
18505;SDS011;9382;53.242;10.438;2024-01-16T01:38:44;10.97;;;6.07;;
18505;SDS011;9382;53.242;10.438;2024-01-16T01:41:11;10.63;;;6.20;;
18505;SDS011;9382;53.242;10.438;2024-01-16T01:43:37;12.40;;;6.83;;
18505;SDS011;9382;53.242;10.438;2024-01-16T01:46:13;13.17;;;6.53;;
18505;SDS011;9382;53.242;10.438;2024-01-16T01:48:43;11.00;;;6.80;;
18505;SDS011;9382;53.242;10.438;2024-01-16T01:51:13;15.70;;;7.30;;
18505;SDS011;9382;53.242;10.438;2024-01-16T01:53:41;11.33;;;6.80;;
18505;SDS011;9382;53.242;10.438;2024-01-16T01:56:10;13.70;;;7.13;;
18505;SDS011;9382;53.242;10.438;2024-01-16T01:58:40;10.67;;;6.60;;
18505;SDS011;9382;53.242;10.438;2024-01-16T02:01:09;12.33;;;6.47;;
18505;SDS011;9382;53.242;10.438;2024-01-16T02:03:40;10.67;;;6.43;;
18505;SDS011;9382;53.242;10.438;2024-01-16T02:06:09;10.77;;;6.00;;
18505;SDS011;9382;53.242;10.438;2024-01-16T02:08:36;11.23;;;5.87;;
18505;SDS011;9382;53.242;10.438;2024-01-16T02:11:03;11.83;;;6.00;;
18505;SDS011;9382;53.242;10.438;2024-01-16T02:13:30;12.87;;;6.70;;
18505;SDS011;9382;53.242;10.438;2024-01-16T02:15:57;15.53;;;6.90;;
18505;SDS011;9382;53.242;10.438;2024-01-16T02:18:24;8.27;;;5.20;;
18505;SDS011;9382;53.242;10.438;2024-01-16T02:20:52;12.63;;;6.17;;
18505;SDS011;9382;53.242;10.438;2024-01-16T02:23:26;9.57;;;6.10;;
18505;SDS011;9382;53.242;10.438;2024-01-16T02:25:53;7.97;;;5.67;;
18505;SDS011;9382;53.242;10.438;2024-01-16T02:28:20;10.67;;;5.87;;
18505;SDS011;9382;53.242;10.438;2024-01-16T02:30:47;8.97;;;5.73;;
18505;SDS011;9382;53.242;10.438;2024-01-16T02:33:13;9.50;;;5.87;;
18505;SDS011;9382;53.242;10.438;2024-01-16T02:35:40;9.43;;;5.83;;
18505;SDS011;9382;53.242;10.438;2024-01-16T02:38:07;10.07;;;5.60;;
18505;SDS011;9382;53.242;10.438;2024-01-16T02:40:35;11.30;;;5.97;;
18505;SDS011;9382;53.242;10.438;2024-01-16T02:43:02;8.23;;;5.50;;
18505;SDS011;9382;53.242;10.438;2024-01-16T02:45:28;11.63;;;5.70;;
18505;SDS011;9382;53.242;10.438;2024-01-16T02:47:55;9.87;;;6.10;;
18505;SDS011;9382;53.242;10.438;2024-01-16T02:50:22;8.00;;;5.63;;
18505;SDS011;9382;53.242;10.438;2024-01-16T02:52:49;9.43;;;5.80;;
18505;SDS011;9382;53.242;10.438;2024-01-16T02:55:16;9.73;;;5.67;;
18505;SDS011;9382;53.242;10.438;2024-01-16T02:57:44;9.57;;;5.43;;
18505;SDS011;9382;53.242;10.438;2024-01-16T03:00:11;10.87;;;5.57;;
18505;SDS011;9382;53.242;10.438;2024-01-16T03:02:38;6.87;;;4.83;;
18505;SDS011;9382;53.242;10.438;2024-01-16T03:05:05;11.53;;;5.33;;
18505;SDS011;9382;53.242;10.438;2024-01-16T03:07:32;10.70;;;5.70;;
18505;SDS011;9382;53.242;10.438;2024-01-16T03:10:00;11.90;;;5.70;;
18505;SDS011;9382;53.242;10.438;2024-01-16T03:12:27;10.50;;;5.63;;
18505;SDS011;9382;53.242;10.438;2024-01-16T03:14:55;11.87;;;6.53;;
18505;SDS011;9382;53.242;10.438;2024-01-16T03:17:21;10.90;;;5.80;;
18505;SDS011;9382;53.242;10.438;2024-01-16T03:19:48;11.30;;;5.70;;
18505;SDS011;9382;53.242;10.438;2024-01-16T03:22:15;14.77;;;6.27;;
18505;SDS011;9382;53.242;10.438;2024-01-16T03:24:42;9.73;;;5.97;;
18505;SDS011;9382;53.242;10.438;2024-01-16T03:27:09;12.30;;;6.40;;
18505;SDS011;9382;53.242;10.438;2024-01-16T03:29:36;11.93;;;6.40;;
18505;SDS011;9382;53.242;10.438;2024-01-16T03:32:04;12.43;;;6.30;;
18505;SDS011;9382;53.242;10.438;2024-01-16T03:34:31;13.70;;;6.43;;
18505;SDS011;9382;53.242;10.438;2024-01-16T03:36:58;13.77;;;6.37;;
18505;SDS011;9382;53.242;10.438;2024-01-16T03:39:24;11.77;;;6.07;;
18505;SDS011;9382;53.242;10.438;2024-01-16T03:41:51;12.03;;;6.47;;
18505;SDS011;9382;53.242;10.438;2024-01-16T03:44:18;12.77;;;6.40;;
18505;SDS011;9382;53.242;10.438;2024-01-16T03:46:45;10.93;;;6.33;;
18505;SDS011;9382;53.242;10.438;2024-01-16T03:49:13;13.80;;;6.37;;
18505;SDS011;9382;53.242;10.438;2024-01-16T03:51:39;11.70;;;6.17;;
18505;SDS011;9382;53.242;10.438;2024-01-16T03:54:07;13.93;;;7.03;;
18505;SDS011;9382;53.242;10.438;2024-01-16T03:56:34;14.10;;;6.67;;
18505;SDS011;9382;53.242;10.438;2024-01-16T03:59:01;14.23;;;6.60;;
18505;SDS011;9382;53.242;10.438;2024-01-16T04:01:31;11.20;;;6.83;;
18505;SDS011;9382;53.242;10.438;2024-01-16T04:03:59;11.57;;;6.20;;
18505;SDS011;9382;53.242;10.438;2024-01-16T04:06:27;15.20;;;7.00;;
18505;SDS011;9382;53.242;10.438;2024-01-16T04:08:54;13.33;;;6.60;;
18505;SDS011;9382;53.242;10.438;2024-01-16T04:11:21;12.17;;;6.13;;
18505;SDS011;9382;53.242;10.438;2024-01-16T04:13:48;12.83;;;6.57;;
18505;SDS011;9382;53.242;10.438;2024-01-16T04:16:15;11.67;;;6.57;;
18505;SDS011;9382;53.242;10.438;2024-01-16T04:18:42;12.87;;;6.17;;
18505;SDS011;9382;53.242;10.438;2024-01-16T04:21:09;13.67;;;6.47;;
18505;SDS011;9382;53.242;10.438;2024-01-16T04:23:37;12.70;;;6.77;;
18505;SDS011;9382;53.242;10.438;2024-01-16T04:26:04;14.80;;;7.03;;
18505;SDS011;9382;53.242;10.438;2024-01-16T04:28:31;12.97;;;5.60;;
18505;SDS011;9382;53.242;10.438;2024-01-16T04:30:57;12.47;;;6.17;;
18505;SDS011;9382;53.242;10.438;2024-01-16T04:33:24;11.90;;;6.23;;
18505;SDS011;9382;53.242;10.438;2024-01-16T04:35:51;11.23;;;6.30;;
18505;SDS011;9382;53.242;10.438;2024-01-16T04:38:17;13.97;;;5.93;;
18505;SDS011;9382;53.242;10.438;2024-01-16T04:40:45;10.83;;;5.03;;
18505;SDS011;9382;53.242;10.438;2024-01-16T04:43:12;13.23;;;5.13;;
18505;SDS011;9382;53.242;10.438;2024-01-16T04:45:39;9.53;;;5.27;;
18505;SDS011;9382;53.242;10.438;2024-01-16T04:48:06;7.47;;;4.33;;
18505;SDS011;9382;53.242;10.438;2024-01-16T04:50:34;9.43;;;4.67;;
18505;SDS011;9382;53.242;10.438;2024-01-16T04:53:00;7.80;;;4.27;;
18505;SDS011;9382;53.242;10.438;2024-01-16T04:55:27;16.10;;;4.30;;
18505;SDS011;9382;53.242;10.438;2024-01-16T04:57:56;7.17;;;4.37;;
18505;SDS011;9382;53.242;10.438;2024-01-16T05:00:24;9.77;;;4.20;;
18505;SDS011;9382;53.242;10.438;2024-01-16T05:02:51;6.30;;;3.93;;
18505;SDS011;9382;53.242;10.438;2024-01-16T05:05:18;6.47;;;3.90;;
18505;SDS011;9382;53.242;10.438;2024-01-16T05:07:45;11.20;;;4.73;;
18505;SDS011;9382;53.242;10.438;2024-01-16T05:10:12;5.07;;;3.53;;
18505;SDS011;9382;53.242;10.438;2024-01-16T05:12:39;8.73;;;3.60;;
18505;SDS011;9382;53.242;10.438;2024-01-16T05:15:08;6.13;;;3.70;;
18505;SDS011;9382;53.242;10.438;2024-01-16T05:17:36;5.57;;;3.83;;
18505;SDS011;9382;53.242;10.438;2024-01-16T05:20:03;5.70;;;3.67;;
18505;SDS011;9382;53.242;10.438;2024-01-16T05:22:30;4.17;;;2.73;;
18505;SDS011;9382;53.242;10.438;2024-01-16T05:24:57;3.63;;;2.67;;
18505;SDS011;9382;53.242;10.438;2024-01-16T05:27:25;4.17;;;2.73;;
18505;SDS011;9382;53.242;10.438;2024-01-16T05:29:51;2.17;;;2.07;;
18505;SDS011;9382;53.242;10.438;2024-01-16T05:32:19;2.87;;;2.13;;
18505;SDS011;9382;53.242;10.438;2024-01-16T05:34:46;3.33;;;2.80;;
18505;SDS011;9382;53.242;10.438;2024-01-16T05:37:13;2.83;;;1.93;;
18505;SDS011;9382;53.242;10.438;2024-01-16T05:39:39;2.00;;;1.90;;
18505;SDS011;9382;53.242;10.438;2024-01-16T05:42:06;2.20;;;2.00;;
18505;SDS011;9382;53.242;10.438;2024-01-16T05:44:33;1.90;;;1.63;;
18505;SDS011;9382;53.242;10.438;2024-01-16T05:46:59;2.90;;;1.50;;
18505;SDS011;9382;53.242;10.438;2024-01-16T05:49:28;2.73;;;1.87;;
18505;SDS011;9382;53.242;10.438;2024-01-16T05:51:54;1.90;;;1.80;;
18505;SDS011;9382;53.242;10.438;2024-01-16T05:54:21;1.97;;;1.77;;
18505;SDS011;9382;53.242;10.438;2024-01-16T05:56:48;2.43;;;1.90;;
18505;SDS011;9382;53.242;10.438;2024-01-16T05:59:15;3.30;;;2.40;;
18505;SDS011;9382;53.242;10.438;2024-01-16T06:01:41;3.43;;;2.30;;
18505;SDS011;9382;53.242;10.438;2024-01-16T06:04:09;5.70;;;2.77;;
18505;SDS011;9382;53.242;10.438;2024-01-16T06:06:37;5.90;;;3.10;;
18505;SDS011;9382;53.242;10.438;2024-01-16T06:09:04;7.93;;;3.63;;
18505;SDS011;9382;53.242;10.438;2024-01-16T06:11:31;5.17;;;2.97;;
18505;SDS011;9382;53.242;10.438;2024-01-16T06:13:58;7.93;;;3.00;;
18505;SDS011;9382;53.242;10.438;2024-01-16T06:16:25;6.20;;;3.20;;
18505;SDS011;9382;53.242;10.438;2024-01-16T06:18:52;9.10;;;3.60;;
18505;SDS011;9382;53.242;10.438;2024-01-16T06:21:19;5.80;;;3.70;;
18505;SDS011;9382;53.242;10.438;2024-01-16T06:23:47;8.00;;;4.00;;
18505;SDS011;9382;53.242;10.438;2024-01-16T06:26:13;13.70;;;4.83;;
18505;SDS011;9382;53.242;10.438;2024-01-16T06:28:40;8.93;;;4.23;;
18505;SDS011;9382;53.242;10.438;2024-01-16T06:31:07;11.57;;;4.53;;
18505;SDS011;9382;53.242;10.438;2024-01-16T06:33:34;10.00;;;5.03;;
18505;SDS011;9382;53.242;10.438;2024-01-16T06:36:01;13.17;;;5.20;;
18505;SDS011;9382;53.242;10.438;2024-01-16T06:38:29;12.07;;;5.00;;
18505;SDS011;9382;53.242;10.438;2024-01-16T06:40:57;12.67;;;5.60;;
18505;SDS011;9382;53.242;10.438;2024-01-16T06:43:24;10.03;;;5.33;;
18505;SDS011;9382;53.242;10.438;2024-01-16T06:45:51;9.27;;;5.20;;
18505;SDS011;9382;53.242;10.438;2024-01-16T06:48:18;12.30;;;5.57;;
18505;SDS011;9382;53.242;10.438;2024-01-16T06:50:44;14.73;;;5.60;;
18505;SDS011;9382;53.242;10.438;2024-01-16T06:53:11;12.43;;;4.90;;
18505;SDS011;9382;53.242;10.438;2024-01-16T06:55:38;13.00;;;5.77;;
18505;SDS011;9382;53.242;10.438;2024-01-16T06:58:06;10.00;;;4.97;;
18505;SDS011;9382;53.242;10.438;2024-01-16T07:00:34;14.27;;;5.60;;
18505;SDS011;9382;53.242;10.438;2024-01-16T07:03:01;10.50;;;4.70;;
18505;SDS011;9382;53.242;10.438;2024-01-16T07:05:28;12.43;;;5.03;;
18505;SDS011;9382;53.242;10.438;2024-01-16T07:07:55;11.90;;;5.40;;
18505;SDS011;9382;53.242;10.438;2024-01-16T07:10:23;10.63;;;5.20;;
18505;SDS011;9382;53.242;10.438;2024-01-16T07:12:50;13.00;;;4.80;;
18505;SDS011;9382;53.242;10.438;2024-01-16T07:15:18;12.47;;;4.70;;
18505;SDS011;9382;53.242;10.438;2024-01-16T07:17:44;13.57;;;5.20;;
18505;SDS011;9382;53.242;10.438;2024-01-16T07:20:11;14.40;;;5.13;;
18505;SDS011;9382;53.242;10.438;2024-01-16T07:22:38;11.03;;;4.90;;
18505;SDS011;9382;53.242;10.438;2024-01-16T07:25:05;14.47;;;4.60;;
18505;SDS011;9382;53.242;10.438;2024-01-16T07:27:32;9.13;;;4.67;;
18505;SDS011;9382;53.242;10.438;2024-01-16T07:29:59;8.50;;;4.10;;
18505;SDS011;9382;53.242;10.438;2024-01-16T07:32:27;10.67;;;4.70;;
18505;SDS011;9382;53.242;10.438;2024-01-16T07:34:53;10.60;;;4.90;;
18505;SDS011;9382;53.242;10.438;2024-01-16T07:37:20;10.43;;;4.23;;
18505;SDS011;9382;53.242;10.438;2024-01-16T07:39:47;10.00;;;4.40;;
18505;SDS011;9382;53.242;10.438;2024-01-16T07:42:13;9.70;;;4.10;;
18505;SDS011;9382;53.242;10.438;2024-01-16T07:44:40;7.80;;;4.13;;
18505;SDS011;9382;53.242;10.438;2024-01-16T07:47:07;9.90;;;4.30;;
18505;SDS011;9382;53.242;10.438;2024-01-16T07:49:35;11.40;;;4.20;;
18505;SDS011;9382;53.242;10.438;2024-01-16T07:52:01;6.90;;;3.87;;
18505;SDS011;9382;53.242;10.438;2024-01-16T07:54:28;7.20;;;3.93;;
18505;SDS011;9382;53.242;10.438;2024-01-16T07:56:56;10.53;;;3.77;;
18505;SDS011;9382;53.242;10.438;2024-01-16T07:59:22;8.87;;;3.73;;
18505;SDS011;9382;53.242;10.438;2024-01-16T08:01:49;11.87;;;3.80;;
18505;SDS011;9382;53.242;10.438;2024-01-16T08:04:17;8.43;;;3.80;;
18505;SDS011;9382;53.242;10.438;2024-01-16T08:06:46;9.10;;;3.70;;
18505;SDS011;9382;53.242;10.438;2024-01-16T08:09:13;5.80;;;3.33;;
18505;SDS011;9382;53.242;10.438;2024-01-16T08:11:40;8.77;;;3.60;;
18505;SDS011;9382;53.242;10.438;2024-01-16T08:14:07;5.13;;;3.33;;
18505;SDS011;9382;53.242;10.438;2024-01-16T08:16:33;4.17;;;2.80;;
18505;SDS011;9382;53.242;10.438;2024-01-16T08:19:00;9.30;;;3.03;;
18505;SDS011;9382;53.242;10.438;2024-01-16T08:21:28;6.03;;;2.93;;
18505;SDS011;9382;53.242;10.438;2024-01-16T08:23:56;5.73;;;3.10;;
18505;SDS011;9382;53.242;10.438;2024-01-16T08:26:23;5.47;;;3.23;;
18505;SDS011;9382;53.242;10.438;2024-01-16T08:28:50;8.17;;;2.63;;
18505;SDS011;9382;53.242;10.438;2024-01-16T08:31:17;8.90;;;3.30;;
18505;SDS011;9382;53.242;10.438;2024-01-16T08:33:44;6.93;;;2.90;;
18505;SDS011;9382;53.242;10.438;2024-01-16T08:36:12;2.90;;;2.50;;
18505;SDS011;9382;53.242;10.438;2024-01-16T08:38:39;5.60;;;2.70;;
18505;SDS011;9382;53.242;10.438;2024-01-16T08:41:07;3.33;;;2.20;;
18505;SDS011;9382;53.242;10.438;2024-01-16T08:43:34;5.63;;;2.40;;
18505;SDS011;9382;53.242;10.438;2024-01-16T08:46:01;5.47;;;2.43;;
18505;SDS011;9382;53.242;10.438;2024-01-16T08:48:28;6.07;;;2.57;;
18505;SDS011;9382;53.242;10.438;2024-01-16T08:50:55;6.23;;;2.50;;
18505;SDS011;9382;53.242;10.438;2024-01-16T08:53:21;5.40;;;2.27;;
18505;SDS011;9382;53.242;10.438;2024-01-16T08:55:49;4.47;;;2.40;;
18505;SDS011;9382;53.242;10.438;2024-01-16T08:58:17;5.03;;;2.43;;
18505;SDS011;9382;53.242;10.438;2024-01-16T09:00:43;9.87;;;2.60;;
18505;SDS011;9382;53.242;10.438;2024-01-16T09:03:11;9.47;;;2.80;;
18505;SDS011;9382;53.242;10.438;2024-01-16T09:05:38;5.37;;;2.93;;
18505;SDS011;9382;53.242;10.438;2024-01-16T09:08:05;6.53;;;3.00;;
18505;SDS011;9382;53.242;10.438;2024-01-16T09:10:32;5.40;;;2.60;;
18505;SDS011;9382;53.242;10.438;2024-01-16T09:12:59;4.07;;;2.50;;
18505;SDS011;9382;53.242;10.438;2024-01-16T09:15:27;8.50;;;3.50;;
18505;SDS011;9382;53.242;10.438;2024-01-16T09:17:53;7.93;;;3.00;;
18505;SDS011;9382;53.242;10.438;2024-01-16T09:20:20;5.43;;;3.10;;
18505;SDS011;9382;53.242;10.438;2024-01-16T09:22:47;4.20;;;2.90;;
18505;SDS011;9382;53.242;10.438;2024-01-16T09:25:14;9.37;;;3.67;;
18505;SDS011;9382;53.242;10.438;2024-01-16T09:27:41;7.83;;;3.37;;
18505;SDS011;9382;53.242;10.438;2024-01-16T09:30:08;7.23;;;2.90;;
18505;SDS011;9382;53.242;10.438;2024-01-16T09:32:38;15.50;;;3.60;;
18505;SDS011;9382;53.242;10.438;2024-01-16T09:35:05;11.13;;;3.33;;
18505;SDS011;9382;53.242;10.438;2024-01-16T09:37:34;7.93;;;3.80;;
18505;SDS011;9382;53.242;10.438;2024-01-16T09:40:01;10.20;;;3.40;;
18505;SDS011;9382;53.242;10.438;2024-01-16T09:42:30;9.30;;;3.30;;
18505;SDS011;9382;53.242;10.438;2024-01-16T09:44:57;7.50;;;3.50;;
18505;SDS011;9382;53.242;10.438;2024-01-16T09:47:26;9.57;;;3.13;;
18505;SDS011;9382;53.242;10.438;2024-01-16T09:49:54;14.50;;;3.70;;
18505;SDS011;9382;53.242;10.438;2024-01-16T09:52:23;4.77;;;3.27;;
18505;SDS011;9382;53.242;10.438;2024-01-16T09:54:50;8.80;;;3.23;;
18505;SDS011;9382;53.242;10.438;2024-01-16T09:57:17;9.43;;;3.10;;
18505;SDS011;9382;53.242;10.438;2024-01-16T09:59:47;4.27;;;3.30;;
18505;SDS011;9382;53.242;10.438;2024-01-16T10:02:14;9.07;;;3.40;;
18505;SDS011;9382;53.242;10.438;2024-01-16T10:04:41;5.47;;;3.43;;
18505;SDS011;9382;53.242;10.438;2024-01-16T10:07:12;5.90;;;3.83;;
18505;SDS011;9382;53.242;10.438;2024-01-16T10:09:40;4.13;;;3.13;;
18505;SDS011;9382;53.242;10.438;2024-01-16T10:12:07;8.30;;;3.23;;
18505;SDS011;9382;53.242;10.438;2024-01-16T10:14:35;6.20;;;3.67;;
18505;SDS011;9382;53.242;10.438;2024-01-16T10:17:04;8.07;;;3.37;;
18505;SDS011;9382;53.242;10.438;2024-01-16T10:19:34;6.27;;;3.33;;
18505;SDS011;9382;53.242;10.438;2024-01-16T10:22:03;3.87;;;3.20;;
18505;SDS011;9382;53.242;10.438;2024-01-16T10:24:32;7.70;;;3.00;;
18505;SDS011;9382;53.242;10.438;2024-01-16T10:27:00;8.03;;;3.63;;
18505;SDS011;9382;53.242;10.438;2024-01-16T10:29:28;7.33;;;3.00;;
18505;SDS011;9382;53.242;10.438;2024-01-16T10:31:56;5.50;;;2.93;;
18505;SDS011;9382;53.242;10.438;2024-01-16T10:34:23;3.97;;;2.93;;
18505;SDS011;9382;53.242;10.438;2024-01-16T10:36:50;5.13;;;3.37;;
18505;SDS011;9382;53.242;10.438;2024-01-16T10:39:17;9.90;;;3.37;;
18505;SDS011;9382;53.242;10.438;2024-01-16T10:41:54;8.30;;;3.30;;
18505;SDS011;9382;53.242;10.438;2024-01-16T10:44:22;7.83;;;3.20;;
18505;SDS011;9382;53.242;10.438;2024-01-16T10:46:49;3.43;;;3.10;;
18505;SDS011;9382;53.242;10.438;2024-01-16T10:49:15;9.80;;;3.57;;
18505;SDS011;9382;53.242;10.438;2024-01-16T10:51:42;7.20;;;3.30;;
18505;SDS011;9382;53.242;10.438;2024-01-16T10:54:11;3.23;;;2.83;;
18505;SDS011;9382;53.242;10.438;2024-01-16T10:56:41;5.57;;;2.90;;
18505;SDS011;9382;53.242;10.438;2024-01-16T10:59:15;4.37;;;2.77;;
18505;SDS011;9382;53.242;10.438;2024-01-16T11:01:45;5.67;;;3.40;;
18505;SDS011;9382;53.242;10.438;2024-01-16T11:04:15;6.97;;;2.90;;
18505;SDS011;9382;53.242;10.438;2024-01-16T11:06:42;7.83;;;3.37;;
18505;SDS011;9382;53.242;10.438;2024-01-16T11:09:10;4.93;;;2.93;;
18505;SDS011;9382;53.242;10.438;2024-01-16T11:11:40;5.83;;;2.93;;
18505;SDS011;9382;53.242;10.438;2024-01-16T11:14:09;7.10;;;3.00;;
18505;SDS011;9382;53.242;10.438;2024-01-16T11:16:39;3.33;;;2.80;;
18505;SDS011;9382;53.242;10.438;2024-01-16T11:19:07;9.70;;;3.07;;
18505;SDS011;9382;53.242;10.438;2024-01-16T11:21:36;4.97;;;3.10;;
18505;SDS011;9382;53.242;10.438;2024-01-16T11:24:05;7.43;;;3.07;;
18505;SDS011;9382;53.242;10.438;2024-01-16T11:26:32;4.60;;;3.37;;
18505;SDS011;9382;53.242;10.438;2024-01-16T11:32:03;5.53;;;3.30;;
18505;SDS011;9382;53.242;10.438;2024-01-16T11:37:27;7.00;;;3.70;;
18505;SDS011;9382;53.242;10.438;2024-01-16T11:42:54;6.43;;;3.80;;
18505;SDS011;9382;53.242;10.438;2024-01-16T11:48:15;6.83;;;3.80;;
18505;SDS011;9382;53.242;10.438;2024-01-16T11:50:43;6.93;;;4.10;;
18505;SDS011;9382;53.242;10.438;2024-01-16T11:53:10;7.53;;;4.13;;
18505;SDS011;9382;53.242;10.438;2024-01-16T11:55:42;7.03;;;3.60;;
18505;SDS011;9382;53.242;10.438;2024-01-16T11:58:24;6.43;;;3.80;;
18505;SDS011;9382;53.242;10.438;2024-01-16T12:01:02;11.57;;;4.43;;
18505;SDS011;9382;53.242;10.438;2024-01-16T12:03:32;8.37;;;3.67;;
18505;SDS011;9382;53.242;10.438;2024-01-16T12:05:59;10.63;;;4.43;;
18505;SDS011;9382;53.242;10.438;2024-01-16T12:08:27;10.57;;;4.57;;
18505;SDS011;9382;53.242;10.438;2024-01-16T12:10:54;7.37;;;4.27;;
18505;SDS011;9382;53.242;10.438;2024-01-16T12:13:21;9.73;;;4.20;;
18505;SDS011;9382;53.242;10.438;2024-01-16T12:15:48;9.80;;;4.53;;
18505;SDS011;9382;53.242;10.438;2024-01-16T12:18:18;11.13;;;4.20;;
18505;SDS011;9382;53.242;10.438;2024-01-16T12:20:46;6.97;;;4.40;;
18505;SDS011;9382;53.242;10.438;2024-01-16T12:23:13;5.73;;;4.53;;
18505;SDS011;9382;53.242;10.438;2024-01-16T12:25:40;9.37;;;4.40;;
18505;SDS011;9382;53.242;10.438;2024-01-16T12:28:07;10.33;;;4.80;;
18505;SDS011;9382;53.242;10.438;2024-01-16T12:30:36;10.53;;;4.13;;
18505;SDS011;9382;53.242;10.438;2024-01-16T12:33:04;12.07;;;4.60;;
18505;SDS011;9382;53.242;10.438;2024-01-16T12:35:32;10.83;;;5.00;;
18505;SDS011;9382;53.242;10.438;2024-01-16T12:38:02;7.60;;;4.30;;
18505;SDS011;9382;53.242;10.438;2024-01-16T12:40:31;7.63;;;4.37;;
18505;SDS011;9382;53.242;10.438;2024-01-16T12:42:59;8.10;;;4.60;;
18505;SDS011;9382;53.242;10.438;2024-01-16T12:45:26;12.30;;;4.60;;
18505;SDS011;9382;53.242;10.438;2024-01-16T12:47:53;8.40;;;4.97;;
18505;SDS011;9382;53.242;10.438;2024-01-16T12:50:23;12.17;;;5.23;;
18505;SDS011;9382;53.242;10.438;2024-01-16T12:52:59;10.70;;;5.30;;
18505;SDS011;9382;53.242;10.438;2024-01-16T12:55:31;11.33;;;5.10;;
18505;SDS011;9382;53.242;10.438;2024-01-16T12:58:11;7.03;;;4.70;;
18505;SDS011;9382;53.242;10.438;2024-01-16T13:00:42;9.87;;;5.37;;
18505;SDS011;9382;53.242;10.438;2024-01-16T13:03:14;9.10;;;5.63;;
18505;SDS011;9382;53.242;10.438;2024-01-16T13:05:42;8.47;;;5.47;;
18505;SDS011;9382;53.242;10.438;2024-01-16T13:08:16;10.37;;;5.30;;
18505;SDS011;9382;53.242;10.438;2024-01-16T13:10:45;8.77;;;5.10;;
18505;SDS011;9382;53.242;10.438;2024-01-16T13:13:16;13.47;;;5.50;;
18505;SDS011;9382;53.242;10.438;2024-01-16T13:15:44;14.30;;;6.37;;
18505;SDS011;9382;53.242;10.438;2024-01-16T13:18:18;9.03;;;4.53;;
18505;SDS011;9382;53.242;10.438;2024-01-16T13:20:46;14.80;;;5.00;;
18505;SDS011;9382;53.242;10.438;2024-01-16T13:23:15;15.53;;;4.70;;
18505;SDS011;9382;53.242;10.438;2024-01-16T13:25:42;12.50;;;5.07;;
18505;SDS011;9382;53.242;10.438;2024-01-16T13:28:10;8.47;;;4.63;;
18505;SDS011;9382;53.242;10.438;2024-01-16T13:30:37;15.90;;;5.00;;
18505;SDS011;9382;53.242;10.438;2024-01-16T13:33:04;9.90;;;5.07;;
18505;SDS011;9382;53.242;10.438;2024-01-16T13:35:30;8.67;;;4.70;;
18505;SDS011;9382;53.242;10.438;2024-01-16T13:37:58;10.03;;;4.67;;
18505;SDS011;9382;53.242;10.438;2024-01-16T13:40:26;7.33;;;4.10;;
18505;SDS011;9382;53.242;10.438;2024-01-16T13:42:52;7.20;;;4.37;;
18505;SDS011;9382;53.242;10.438;2024-01-16T13:45:19;12.47;;;4.70;;
18505;SDS011;9382;53.242;10.438;2024-01-16T13:47:46;9.40;;;4.70;;
18505;SDS011;9382;53.242;10.438;2024-01-16T13:50:12;10.00;;;4.80;;
18505;SDS011;9382;53.242;10.438;2024-01-16T13:52:39;11.27;;;5.30;;
18505;SDS011;9382;53.242;10.438;2024-01-16T13:55:06;7.47;;;4.53;;
18505;SDS011;9382;53.242;10.438;2024-01-16T13:57:35;7.80;;;4.70;;
18505;SDS011;9382;53.242;10.438;2024-01-16T14:00:02;8.80;;;5.23;;
18505;SDS011;9382;53.242;10.438;2024-01-16T14:02:29;9.33;;;4.70;;
18505;SDS011;9382;53.242;10.438;2024-01-16T14:04:56;9.60;;;5.10;;
18505;SDS011;9382;53.242;10.438;2024-01-16T14:07:22;9.07;;;4.97;;
18505;SDS011;9382;53.242;10.438;2024-01-16T14:09:49;6.80;;;4.63;;
18505;SDS011;9382;53.242;10.438;2024-01-16T14:12:16;8.87;;;4.27;;
18505;SDS011;9382;53.242;10.438;2024-01-16T14:14:45;11.10;;;4.70;;
18505;SDS011;9382;53.242;10.438;2024-01-16T14:17:12;11.07;;;5.17;;
18505;SDS011;9382;53.242;10.438;2024-01-16T14:19:39;12.47;;;5.20;;
18505;SDS011;9382;53.242;10.438;2024-01-16T14:22:06;7.47;;;4.67;;
18505;SDS011;9382;53.242;10.438;2024-01-16T14:24:33;8.80;;;4.73;;
18505;SDS011;9382;53.242;10.438;2024-01-16T14:26:59;8.27;;;4.30;;
18505;SDS011;9382;53.242;10.438;2024-01-16T14:29:26;9.70;;;4.30;;
18505;SDS011;9382;53.242;10.438;2024-01-16T14:31:55;10.70;;;5.30;;
18505;SDS011;9382;53.242;10.438;2024-01-16T14:34:23;9.27;;;4.90;;
18505;SDS011;9382;53.242;10.438;2024-01-16T14:36:50;13.10;;;5.67;;
18505;SDS011;9382;53.242;10.438;2024-01-16T14:39:18;10.07;;;4.77;;
18505;SDS011;9382;53.242;10.438;2024-01-16T14:41:49;10.67;;;4.60;;
18505;SDS011;9382;53.242;10.438;2024-01-16T14:44:16;8.43;;;4.47;;
18505;SDS011;9382;53.242;10.438;2024-01-16T14:46:46;9.90;;;4.60;;
18505;SDS011;9382;53.242;10.438;2024-01-16T14:49:14;9.03;;;4.17;;
18505;SDS011;9382;53.242;10.438;2024-01-16T14:51:41;13.53;;;4.77;;
18505;SDS011;9382;53.242;10.438;2024-01-16T14:54:08;8.83;;;4.83;;
18505;SDS011;9382;53.242;10.438;2024-01-16T14:56:34;12.73;;;4.80;;